Time;durP1;ratioP1;P1;durP2;ratioP2;P2;SDS_P1;SDS_P2;PMS_P1;PMS_P2;Temp;Humidity;BMP_temperature;BMP_pressure;BME280_temperature;BME280_humidity;BME280_pressure;Samples;Min_cycle;Max_cycle;Signal;HPM_P1;HPM_P2
2023/03/21 00:00:52;;;;;;;23.92;18.90;;;9.40;99.90;;;;;;6247763;22;20357;-78
2023/03/21 00:03:18;;;;;;;26.08;18.85;;;9.30;99.90;;;;;;6274745;22;20012;-78
2023/03/21 00:05:48;;;;;;;24.45;18.50;;;9.40;99.90;;;;;;6246504;22;20492;-78
2023/03/21 00:08:14;;;;;;;24.70;19.20;;;9.40;99.90;;;;;;6247898;22;20019;-78
2023/03/21 00:10:40;;;;;;;34.63;21.23;;;9.40;99.90;;;;;;6247352;22;20043;-78
2023/03/21 00:13:06;;;;;;;24.90;18.73;;;9.40;99.90;;;;;;6246180;22;20035;-79
2023/03/21 00:15:31;;;;;;;26.27;19.55;;;9.40;99.90;;;;;;6246429;22;20010;-80
2023/03/21 00:18:02;;;;;;;30.02;19.40;;;9.40;99.90;;;;;;6221771;22;20012;-79
2023/03/21 00:20:30;;;;;;;21.92;16.55;;;9.70;99.90;;;;;;6247384;22;20383;-79
2023/03/21 00:22:55;;;;;;;24.95;18.02;;;9.40;99.90;;;;;;6222187;22;20018;-78
2023/03/21 00:25:21;;;;;;;27.15;18.15;;;9.30;99.90;;;;;;6246404;22;20342;-78
2023/03/21 00:27:46;;;;;;;21.00;16.23;;;9.40;99.90;;;;;;6245990;22;20022;-79
2023/03/21 00:30:13;;;;;;;22.80;16.80;;;9.40;99.90;;;;;;6246582;22;20026;-78
2023/03/21 00:32:40;;;;;;;29.50;18.92;;;9.40;99.90;;;;;;6246936;22;20010;-78
2023/03/21 00:35:05;;;;;;;29.45;19.60;;;9.40;99.90;;;;;;6220583;22;20011;-78
2023/03/21 00:37:31;;;;;;;32.97;20.23;;;9.40;99.90;;;;;;6246484;22;20019;-79
2023/03/21 00:39:57;;;;;;;28.08;18.92;;;9.30;99.90;;;;;;6221462;22;20043;-79
2023/03/21 00:42:22;;;;;;;51.08;31.13;;;9.40;99.90;;;;;;6246253;22;20338;-78
2023/03/21 00:44:48;;;;;;;71.32;40.20;;;9.50;99.90;;;;;;6273016;22;20078;-79
2023/03/21 00:47:14;;;;;;;54.67;27.45;;;9.40;99.90;;;;;;6246182;22;20012;-78
2023/03/21 00:49:40;;;;;;;52.83;31.92;;;9.40;99.90;;;;;;6246353;22;20008;-79
2023/03/21 00:52:07;;;;;;;66.72;40.65;;;9.40;99.90;;;;;;6221085;22;20334;-78
2023/03/21 00:54:34;;;;;;;80.10;37.53;;;9.70;99.90;;;;;;6245745;22;20403;-78
2023/03/21 00:57:01;;;;;;;73.13;33.03;;;9.60;99.90;;;;;;6273211;22;20023;-79
2023/03/21 00:59:27;;;;;;;68.20;34.55;;;9.40;99.90;;;;;;6246676;22;20012;-79
2023/03/21 01:01:53;;;;;;;115.90;41.38;;;9.40;99.90;;;;;;6221507;22;20023;-78
2023/03/21 01:04:20;;;;;;;85.03;37.08;;;9.40;99.90;;;;;;6246257;22;20502;-78
2023/03/21 01:06:46;;;;;;;120.50;60.15;;;9.40;99.90;;;;;;6245465;22;20026;-78
2023/03/21 01:09:21;;;;;;;70.82;38.40;;;9.40;99.90;;;;;;6273841;22;20085;-78
2023/03/21 01:11:48;;;;;;;116.68;51.28;;;9.50;99.90;;;;;;6220428;22;20027;-79
2023/03/21 01:14:16;;;;;;;86.30;43.60;;;9.50;99.90;;;;;;6273711;22;20350;-79
2023/03/21 01:16:42;;;;;;;82.32;36.95;;;9.40;99.90;;;;;;6245595;22;20012;-78
2023/03/21 01:19:11;;;;;;;101.25;42.35;;;9.40;99.90;;;;;;6246212;22;20012;-79
2023/03/21 01:21:37;;;;;;;83.78;39.63;;;9.40;99.90;;;;;;6246233;22;20016;-79
2023/03/21 01:24:04;;;;;;;99.88;42.67;;;9.40;99.90;;;;;;6220760;22;20571;-78
2023/03/21 01:26:30;;;;;;;94.70;38.70;;;9.30;99.90;;;;;;6219735;22;20020;-78
2023/03/21 01:28:55;;;;;;;80.78;38.45;;;9.30;99.90;;;;;;6273736;22;20039;-78
2023/03/21 01:31:21;;;;;;;73.30;36.97;;;9.40;99.90;;;;;;6273798;22;20326;-79
2023/03/21 01:33:47;;;;;;;65.85;35.45;;;9.40;99.90;;;;;;6273594;22;20011;-78
2023/03/21 01:36:20;;;;;;;57.75;31.63;;;9.50;99.90;;;;;;6245359;22;20012;-78
2023/03/21 01:38:46;;;;;;;60.90;33.22;;;9.40;99.90;;;;;;6246865;22;20361;-78
2023/03/21 01:41:28;;;;;;;81.20;37.08;;;9.40;99.90;;;;;;6245820;22;20434;-78
2023/03/21 01:43:54;;;;;;;80.25;38.95;;;9.50;99.90;;;;;;6220818;22;20074;-78
2023/03/21 01:46:41;;;;;;;91.00;46.53;;;9.50;99.90;;;;;;6273068;22;20028;-78
2023/03/21 01:49:28;;;;;;;56.38;33.70;;;9.30;99.90;;;;;;6246224;22;20015;-78
2023/03/21 01:52:06;;;;;;;56.88;35.25;;;9.40;99.90;;;;;;6246114;22;20350;-79
2023/03/21 01:54:39;;;;;;;66.55;38.15;;;9.40;99.90;;;;;;6219745;22;20346;-78
2023/03/21 01:57:10;;;;;;;79.65;45.80;;;9.40;99.90;;;;;;6220625;22;20007;-78
2023/03/21 01:59:44;;;;;;;56.88;35.08;;;9.40;99.90;;;;;;6246017;22;20034;-78
2023/03/21 02:02:16;;;;;;;57.33;35.42;;;9.60;99.90;;;;;;6245691;22;20456;-78
2023/03/21 02:04:54;;;;;;;60.63;37.17;;;9.40;99.90;;;;;;6220049;22;20043;-78
2023/03/21 02:07:27;;;;;;;56.03;37.08;;;9.40;99.90;;;;;;6220474;22;20262;-78
2023/03/21 02:09:55;;;;;;;60.00;33.67;;;9.40;99.90;;;;;;6245622;22;20394;-78
2023/03/21 02:12:20;;;;;;;72.20;44.40;;;9.40;99.90;;;;;;6246221;22;20022;-78
2023/03/21 02:14:48;;;;;;;54.55;34.63;;;9.40;99.90;;;;;;6219630;22;20007;-78
2023/03/21 02:17:41;;;;;;;62.38;39.42;;;9.40;99.90;;;;;;6220145;22;20030;-78
2023/03/21 02:20:27;;;;;;;63.05;38.60;;;9.40;99.90;;;;;;6220289;22;20015;-78
2023/03/21 02:22:56;;;;;;;54.08;32.70;;;9.40;99.90;;;;;;6251020;22;20019;-78
2023/03/21 02:25:42;;;;;;;59.30;36.67;;;9.40;99.90;;;;;;6220010;22;20111;-79
2023/03/21 02:28:22;;;;;;;57.03;34.53;;;9.40;99.90;;;;;;6148755;23;20076;-78
2023/03/21 02:31:34;;;;;;;57.75;38.15;;;9.40;99.90;;;;;;6124588;23;20482;-78
2023/03/21 02:34:06;;;;;;;55.28;35.22;;;9.40;99.90;;;;;;6149206;23;20021;-79
2023/03/21 02:36:55;;;;;;;61.80;38.83;;;9.40;99.90;;;;;;6148818;23;20013;-78
2023/03/21 02:39:27;;;;;;;69.55;47.10;;;9.70;99.90;;;;;;6099668;23;20019;-78
2023/03/21 02:42:04;;;;;;;59.65;37.95;;;9.40;99.90;;;;;;6124781;23;20009;-78
2023/03/21 02:45:14;;;;;;;64.68;45.03;;;9.40;99.90;;;;;;6123974;23;20013;-79
2023/03/21 02:47:56;;;;;;;56.35;36.35;;;9.40;99.90;;;;;;6145738;23;20093;-78
2023/03/21 02:50:41;;;;;;;50.80;34.80;;;9.40;99.90;;;;;;6124685;23;20021;-78
2023/03/21 02:53:10;;;;;;;59.80;39.38;;;9.50;99.90;;;;;;6099414;23;20059;-79
2023/03/21 02:55:38;;;;;;;51.13;34.28;;;9.40;99.90;;;;;;6123965;23;20013;-78
2023/03/21 02:58:06;;;;;;;44.47;30.98;;;9.40;99.90;;;;;;6148890;23;20076;-78
2023/03/21 03:00:33;;;;;;;50.13;33.88;;;9.40;99.90;;;;;;6124304;23;20507;-78
2023/03/21 03:02:59;;;;;;;52.42;35.17;;;9.40;99.90;;;;;;6099631;23;20025;-78
2023/03/21 03:05:28;;;;;;;67.22;44.22;;;9.50;99.90;;;;;;6168239;22;20465;-79
2023/03/21 03:08:03;;;;;;;48.97;32.05;;;9.40;99.90;;;;;;6273211;22;20008;-79
2023/03/21 03:10:43;;;;;;;54.17;35.00;;;9.40;99.90;;;;;;6274835;22;20090;-78
2023/03/21 03:13:56;;;;;;;56.40;33.53;;;9.50;99.90;;;;;;6274648;22;20019;-79
2023/03/21 03:16:59;;;;;;;42.35;29.95;;;9.40;99.90;;;;;;6101716;23;20105;-79
2023/03/21 03:19:28;;;;;;;38.65;27.02;;;9.40;99.90;;;;;;6147817;23;20514;-80
2023/03/21 03:22:05;;;;;;;39.75;26.25;;;9.40;99.90;;;;;;6150444;23;20021;-78
2023/03/21 03:24:37;;;;;;;41.50;26.77;;;9.40;99.90;;;;;;6125887;23;20014;-78
2023/03/21 03:27:16;;;;;;;41.40;27.08;;;9.40;99.90;;;;;;6126021;23;20022;-78
2023/03/21 03:29:45;;;;;;;45.38;33.45;;;9.40;99.90;;;;;;6151074;23;20033;-79
2023/03/21 03:32:19;;;;;;;41.50;28.52;;;9.40;99.90;;;;;;6101902;23;20013;-79
2023/03/21 03:34:55;;;;;;;39.72;28.08;;;9.40;99.90;;;;;;6101299;23;20016;-78
2023/03/21 03:37:25;;;;;;;37.53;25.15;;;9.60;99.90;;;;;;6101753;23;20022;-78
2023/03/21 03:40:04;;;;;;;37.38;24.08;;;9.40;99.90;;;;;;6102410;23;20020;-79
2023/03/21 03:43:09;;;;;;;31.25;21.80;;;9.40;99.90;;;;;;6126306;23;20052;-78
2023/03/21 03:45:38;;;;;;;;;;;9.50;99.90;;;;;;6150930;23;20017;-79
2023/03/21 03:48:30;;;;;;;33.75;21.85;;;9.40;99.90;;;;;;6241845;22;19915;-78
2023/03/21 03:51:12;;;;;;;31.40;20.73;;;9.40;99.90;;;;;;6221619;22;20082;-78
2023/03/21 03:53:59;;;;;;;32.45;21.30;;;9.40;99.90;;;;;;6247442;22;20012;-78
2023/03/21 03:56:26;;;;;;;28.55;20.33;;;9.40;99.90;;;;;;6246933;22;20051;-79
2023/03/21 03:58:51;;;;;;;27.45;19.83;;;9.40;99.90;;;;;;6247412;22;20011;-81
2023/03/21 04:01:17;;;;;;;34.33;22.23;;;9.70;99.90;;;;;;6247949;22;20449;-78
2023/03/21 04:03:47;;;;;;;35.20;22.75;;;9.50;99.90;;;;;;6276566;22;20106;-78
2023/03/21 04:06:13;;;;;;;32.70;21.58;;;9.50;99.90;;;;;;6226131;22;20718;-78
2023/03/21 04:08:38;;;;;;;30.83;21.20;;;9.40;99.90;;;;;;6227073;22;20049;-78
2023/03/21 04:11:05;;;;;;;33.13;21.80;;;9.40;99.90;;;;;;6227206;22;20102;-78
2023/03/21 04:13:32;;;;;;;28.05;21.23;;;9.40;99.90;;;;;;6275441;22;20087;-78
2023/03/21 04:16:00;;;;;;;32.65;22.25;;;9.40;99.90;;;;;;6274181;22;20019;-79
2023/03/21 04:18:26;;;;;;;33.03;21.60;;;9.40;99.90;;;;;;6221610;22;20012;-79
2023/03/21 04:20:52;;;;;;;32.70;21.33;;;9.40;99.90;;;;;;6247959;22;20015;-79
2023/03/21 04:23:19;;;;;;;26.25;20.45;;;9.40;99.90;;;;;;6222157;22;20018;-78
2023/03/21 04:25:44;;;;;;;29.73;21.73;;;9.60;99.90;;;;;;6221099;22;20069;-78
2023/03/21 04:28:11;;;;;;;29.40;20.30;;;9.40;99.90;;;;;;6246618;22;20023;-78
2023/03/21 04:30:38;;;;;;;31.63;21.65;;;9.40;99.90;;;;;;6221782;22;20030;-78
2023/03/21 04:33:04;;;;;;;40.38;23.73;;;9.40;99.90;;;;;;6247038;22;20045;-78
2023/03/21 04:35:30;;;;;;;28.67;20.90;;;9.40;99.90;;;;;;6220896;22;20369;-78
2023/03/21 04:37:55;;;;;;;39.85;23.23;;;9.40;99.90;;;;;;6246749;22;20082;-78
2023/03/21 04:40:23;;;;;;;39.38;23.23;;;9.40;99.90;;;;;;6221552;22;20100;-78
2023/03/21 04:42:49;;;;;;;29.02;20.20;;;9.40;99.90;;;;;;6246775;22;20023;-79
2023/03/21 04:45:15;;;;;;;34.10;21.02;;;9.30;99.90;;;;;;6220851;22;20319;-79
2023/03/21 04:47:41;;;;;;;39.25;22.70;;;9.40;99.90;;;;;;6220453;22;20008;-78
2023/03/21 04:50:08;;;;;;;30.30;21.80;;;9.40;99.90;;;;;;6246818;22;20085;-79
2023/03/21 04:52:34;;;;;;;39.50;22.65;;;9.40;99.90;;;;;;6246698;22;20012;-79
2023/03/21 04:55:00;;;;;;;28.67;20.45;;;9.50;99.90;;;;;;6273568;22;20064;-79
2023/03/21 04:57:26;;;;;;;31.27;21.73;;;9.60;99.90;;;;;;6273828;22;20330;-79
2023/03/21 04:59:52;;;;;;;35.50;21.83;;;9.60;99.90;;;;;;6247089;22;20012;-79
2023/03/21 05:02:17;;;;;;;33.95;20.70;;;9.40;99.90;;;;;;6220659;22;20310;-79
2023/03/21 05:04:43;;;;;;;34.60;21.08;;;9.40;99.90;;;;;;6273343;22;20345;-80
2023/03/21 05:07:09;;;;;;;33.85;20.45;;;9.40;99.90;;;;;;6220917;22;20012;-79
2023/03/21 05:09:35;;;;;;;39.22;21.50;;;9.40;99.90;;;;;;6246580;22;20311;-79
2023/03/21 05:12:01;;;;;;;33.40;21.15;;;9.40;99.90;;;;;;6273349;22;20008;-79
2023/03/21 05:14:27;;;;;;;29.20;18.95;;;9.40;99.90;;;;;;6273250;22;20016;-78
2023/03/21 05:16:55;;;;;;;30.08;19.58;;;9.40;99.90;;;;;;6220588;22;20045;-78
2023/03/21 05:19:24;;;;;;;32.47;20.45;;;9.40;99.90;;;;;;6221223;22;20011;-79
2023/03/21 05:21:50;;;;;;;29.17;19.73;;;9.40;99.90;;;;;;6246901;22;20012;-79
2023/03/21 05:24:20;;;;;;;34.35;20.77;;;9.40;99.90;;;;;;6272738;22;20015;-78
2023/03/21 05:26:51;;;;;;;28.25;17.60;;;9.40;99.90;;;;;;6246138;22;20027;-79
2023/03/21 05:29:18;;;;;;;28.50;19.58;;;9.40;99.90;;;;;;6246167;22;20479;-79
2023/03/21 05:31:44;;;;;;;27.45;19.08;;;9.50;99.90;;;;;;6245234;22;20012;-79
2023/03/21 05:34:11;;;;;;;32.60;21.45;;;9.60;99.90;;;;;;6273053;22;20050;-79
2023/03/21 05:36:39;;;;;;;35.00;20.75;;;9.40;99.90;;;;;;6221158;22;20018;-79
2023/03/21 05:39:05;;;;;;;36.30;20.77;;;9.40;99.90;;;;;;6246144;22;20008;-78
2023/03/21 05:41:31;;;;;;;33.47;22.35;;;9.50;99.90;;;;;;6246235;22;20014;-79
2023/03/21 05:43:57;;;;;;;40.70;21.27;;;9.40;99.90;;;;;;6221101;22;20378;-78
2023/03/21 05:46:22;;;;;;;35.08;19.92;;;9.40;99.90;;;;;;6245715;22;20467;-78
2023/03/21 05:48:48;;;;;;;39.70;23.00;;;9.40;99.90;;;;;;6221954;22;20020;-79
2023/03/21 05:51:14;;;;;;;32.88;23.00;;;9.40;99.90;;;;;;6274306;22;20472;-79
2023/03/21 05:53:40;;;;;;;35.00;23.95;;;9.40;99.90;;;;;;6222013;22;20008;-79
2023/03/21 05:56:06;;;;;;;45.30;27.40;;;9.60;99.90;;;;;;6221645;22;20014;-78
2023/03/21 05:58:31;;;;;;;40.00;24.73;;;9.40;99.90;;;;;;6246879;22;20023;-78
2023/03/21 06:00:57;;;;;;;44.65;26.52;;;9.40;99.90;;;;;;6246604;22;20012;-79
2023/03/21 06:03:23;;;;;;;39.67;26.45;;;9.40;99.90;;;;;;6221514;22;20094;-79
2023/03/21 06:05:49;;;;;;;36.20;23.67;;;9.50;99.90;;;;;;6221630;22;20020;-79
2023/03/21 06:08:14;;;;;;;45.42;28.13;;;9.40;99.90;;;;;;6246010;22;20012;-79
2023/03/21 06:10:40;;;;;;;43.03;26.40;;;9.40;99.90;;;;;;6274415;22;20014;-79
2023/03/21 06:13:05;;;;;;;40.58;26.80;;;9.40;99.90;;;;;;6247539;22;20022;-79
2023/03/21 06:15:31;;;;;;;34.75;24.25;;;9.50;99.90;;;;;;6247018;22;20021;-79
2023/03/21 06:17:57;;;;;;;41.00;26.70;;;9.40;99.90;;;;;;6274572;22;20071;-79
2023/03/21 06:20:23;;;;;;;35.30;24.17;;;9.50;99.90;;;;;;6246701;22;20418;-79
2023/03/21 06:22:48;;;;;;;43.10;27.73;;;9.50;99.90;;;;;;6221911;22;20094;-79
2023/03/21 06:25:14;;;;;;;31.92;22.98;;;9.50;99.90;;;;;;6221932;22;20291;-79
2023/03/21 06:27:40;;;;;;;39.33;27.55;;;9.60;99.90;;;;;;6221515;22;20342;-79
2023/03/21 06:30:07;;;;;;;32.40;23.02;;;9.50;99.90;;;;;;6273795;22;20066;-79
2023/03/21 06:32:33;;;;;;;42.92;26.95;;;9.50;99.90;;;;;;6246966;22;20136;-79
2023/03/21 06:34:59;;;;;;;33.25;25.17;;;9.50;99.90;;;;;;6246690;22;20011;-79
2023/03/21 06:37:25;;;;;;;37.42;26.02;;;9.50;99.90;;;;;;6273964;22;20046;-79
2023/03/21 06:39:51;;;;;;;34.28;25.42;;;9.50;99.90;;;;;;6221611;22;20011;-79
2023/03/21 06:42:17;;;;;;;37.08;25.52;;;9.40;99.90;;;;;;6221046;22;20344;-79
2023/03/21 06:44:43;;;;;;;37.20;25.80;;;9.60;99.90;;;;;;6221116;22;20095;-79
2023/03/21 06:47:08;;;;;;;35.38;25.55;;;9.50;99.90;;;;;;6246548;22;20094;-79
2023/03/21 06:49:34;;;;;;;36.05;26.10;;;9.70;99.90;;;;;;6221514;22;20094;-79
2023/03/21 06:51:59;;;;;;;33.10;24.20;;;9.60;99.90;;;;;;6246614;22;20050;-79
2023/03/21 06:54:25;;;;;;;32.42;24.63;;;9.60;99.90;;;;;;6246963;22;20018;-79
2023/03/21 06:56:51;;;;;;;31.65;23.92;;;9.60;99.90;;;;;;6246772;22;20012;-79
2023/03/21 06:59:17;;;;;;;37.75;26.20;;;9.60;99.90;;;;;;6220618;22;20081;-79
2023/03/21 07:01:43;;;;;;;35.40;25.58;;;9.60;99.90;;;;;;6247125;22;20019;-79
2023/03/21 07:04:09;;;;;;;40.15;24.17;;;9.60;99.90;;;;;;6221343;22;20030;-79
2023/03/21 07:06:36;;;;;;;30.40;23.45;;;9.70;99.90;;;;;;6246573;22;20323;-78
2023/03/21 07:09:04;;;;;;;26.50;22.13;;;9.70;99.90;;;;;;6221504;22;20026;-79
2023/03/21 07:11:30;;;;;;;25.80;21.38;;;9.70;99.90;;;;;;6246669;22;20003;-79
2023/03/21 07:13:56;;;;;;;25.27;21.67;;;9.80;99.90;;;;;;6246489;22;20288;-79
2023/03/21 07:16:23;;;;;;;26.80;21.05;;;9.70;99.90;;;;;;6221300;22;20022;-80
2023/03/21 07:18:49;;;;;;;30.23;21.83;;;9.80;99.90;;;;;;6221315;22;20012;-79
2023/03/21 07:21:16;;;;;;;24.35;20.58;;;9.70;99.90;;;;;;6246801;22;20070;-79
2023/03/21 07:23:42;;;;;;;29.05;22.02;;;9.80;99.90;;;;;;6247307;22;20019;-79
2023/03/21 07:26:07;;;;;;;26.38;21.70;;;9.80;99.90;;;;;;6246714;22;20016;-79
2023/03/21 07:28:33;;;;;;;25.05;20.92;;;9.80;99.90;;;;;;6273399;22;20015;-79
2023/03/21 07:31:03;;;;;;;24.70;19.55;;;9.80;99.90;;;;;;6221324;22;20086;-79
2023/03/21 07:33:30;;;;;;;22.63;18.90;;;9.90;99.90;;;;;;6246622;22;20016;-79
2023/03/21 07:35:59;;;;;;;21.33;17.73;;;10.00;99.90;;;;;;6273969;22;20307;-79
2023/03/21 07:38:26;;;;;;;22.85;18.02;;;10.00;99.90;;;;;;6273762;22;20011;-79
2023/03/21 07:40:52;;;;;;;24.45;18.33;;;10.00;99.90;;;;;;6247059;22;20054;-79
2023/03/21 07:43:18;;;;;;;19.65;17.55;;;10.00;99.90;;;;;;6246001;22;20047;-79
2023/03/21 07:45:44;;;;;;;22.00;17.25;;;10.00;99.90;;;;;;6246675;22;20019;-79
2023/03/21 07:48:16;;;;;;;21.95;17.30;;;10.10;99.90;;;;;;6246704;22;20017;-79
2023/03/21 07:50:42;;;;;;;19.38;15.73;;;10.10;99.90;;;;;;6221343;22;20012;-80
2023/03/21 07:53:07;;;;;;;18.48;14.75;;;10.00;99.90;;;;;;6247354;22;20014;-79
2023/03/21 07:55:33;;;;;;;18.95;14.90;;;10.10;99.90;;;;;;6248537;22;20095;-79
2023/03/21 07:58:01;;;;;;;17.38;14.55;;;10.10;99.90;;;;;;6222468;22;20033;-79
2023/03/21 08:00:27;;;;;;;18.98;14.40;;;10.10;99.90;;;;;;6223372;22;20020;-79
2023/03/21 08:02:54;;;;;;;16.02;12.88;;;10.10;99.90;;;;;;6275935;22;20043;-79
2023/03/21 08:05:21;;;;;;;15.25;11.32;;;10.10;99.90;;;;;;6248260;22;20393;-79
2023/03/21 08:07:47;;;;;;;13.73;10.10;;;10.10;99.90;;;;;;6248440;22;20066;-79
2023/03/21 08:10:13;;;;;;;12.20;9.68;;;10.10;99.90;;;;;;6223488;22;20035;-78
2023/03/21 08:12:39;;;;;;;11.02;8.65;;;10.10;99.90;;;;;;6222620;22;20043;-79
2023/03/21 08:15:05;;;;;;;12.90;9.50;;;10.30;99.90;;;;;;6248195;22;20015;-79
2023/03/21 08:17:30;;;;;;;17.50;9.15;;;10.10;99.90;;;;;;6249625;22;20034;-79
2023/03/21 08:19:56;;;;;;;11.93;9.43;;;10.20;99.90;;;;;;6224227;22;20446;-79
2023/03/21 08:22:22;;;;;;;12.63;9.95;;;10.10;99.90;;;;;;6276812;22;20020;-79
2023/03/21 08:24:47;;;;;;;12.60;10.18;;;10.10;99.90;;;;;;6227888;22;20051;-79
2023/03/21 08:27:13;;;;;;;13.48;10.15;;;10.20;99.90;;;;;;6277912;22;20022;-79
2023/03/21 08:29:41;;;;;;;12.73;11.13;;;10.10;99.90;;;;;;6252157;22;20008;-79
2023/03/21 08:32:07;;;;;;;16.50;14.23;;;10.10;99.90;;;;;;6253390;22;20011;-79
2023/03/21 08:34:33;;;;;;;14.40;12.90;;;10.20;99.90;;;;;;6251100;22;20091;-79
2023/03/21 08:37:00;;;;;;;13.73;12.20;;;10.30;99.90;;;;;;6252513;22;20016;-79
2023/03/21 08:39:26;;;;;;;17.58;13.38;;;10.10;99.90;;;;;;6252200;22;20086;-79
2023/03/21 08:41:53;;;;;;;15.18;13.23;;;10.20;99.90;;;;;;6250458;22;20083;-79
2023/03/21 08:44:19;;;;;;;15.98;12.80;;;10.20;99.90;;;;;;6250043;22;20016;-79
2023/03/21 08:46:44;;;;;;;14.90;13.10;;;10.20;99.90;;;;;;6277474;22;20065;-79
2023/03/21 08:49:11;;;;;;;15.10;12.55;;;10.20;99.90;;;;;;6248551;22;20414;-79
2023/03/21 08:51:36;;;;;;;16.50;13.20;;;10.20;99.90;;;;;;6248480;22;20012;-79
2023/03/21 08:54:03;;;;;;;14.95;13.00;;;10.30;99.90;;;;;;6223330;22;20022;-79
2023/03/21 08:56:29;;;;;;;15.20;13.60;;;10.20;99.90;;;;;;6275625;22;20053;-79
2023/03/21 08:58:55;;;;;;;15.07;13.45;;;10.20;99.90;;;;;;6247746;22;20023;-79
2023/03/21 09:01:21;;;;;;;15.65;13.65;;;10.10;99.90;;;;;;6275250;22;20011;-79
2023/03/21 09:03:46;;;;;;;15.55;13.32;;;10.10;99.90;;;;;;6247538;22;20489;-79
2023/03/21 09:06:13;;;;;;;17.77;13.27;;;10.20;99.90;;;;;;6247411;22;20016;-79
2023/03/21 09:08:40;;;;;;;17.15;14.00;;;10.20;99.90;;;;;;6247255;22;20443;-79
2023/03/21 09:11:07;;;;;;;21.05;15.38;;;10.30;99.90;;;;;;6274877;22;20069;-79
2023/03/21 09:13:33;;;;;;;18.25;15.02;;;10.30;99.90;;;;;;6247649;22;20414;-79
2023/03/21 09:16:00;;;;;;;17.83;14.20;;;10.30;99.90;;;;;;6275153;22;20045;-79
2023/03/21 09:18:44;;;;;;;18.88;14.25;;;10.30;99.90;;;;;;6274477;22;20410;-79
2023/03/21 09:21:13;;;;;;;20.23;15.13;;;10.40;99.90;;;;;;6247296;22;20039;-79
2023/03/21 09:23:40;;;;;;;20.92;15.90;;;10.40;99.90;;;;;;6246783;22;20019;-79
2023/03/21 09:26:08;;;;;;;21.85;16.65;;;10.40;99.90;;;;;;6247541;22;20024;-79
2023/03/21 09:28:36;;;;;;;20.98;16.40;;;10.40;99.90;;;;;;6247219;22;20022;-79
2023/03/21 09:31:02;;;;;;;20.13;15.40;;;10.40;99.90;;;;;;6246916;22;20019;-79
2023/03/21 09:33:29;;;;;;;20.27;15.02;;;10.40;99.90;;;;;;6221909;22;20014;-79
2023/03/21 09:35:55;;;;;;;19.58;15.23;;;10.40;99.90;;;;;;6222155;22;20291;-78
2023/03/21 09:38:22;;;;;;;22.80;16.98;;;10.40;99.90;;;;;;6221488;22;20057;-79
2023/03/21 09:41:24;;;;;;;21.77;16.88;;;10.40;99.90;;;;;;6274348;22;20011;-79
2023/03/21 09:44:13;;;;;;;24.80;17.73;;;10.40;99.90;;;;;;6274168;22;20443;-79
2023/03/21 09:46:50;;;;;;;29.40;18.25;;;10.40;99.90;;;;;;6274207;22;20015;-78
2023/03/21 09:49:20;;;;;;;25.85;18.73;;;10.50;99.90;;;;;;6274434;22;20023;-79
2023/03/21 09:51:51;;;;;;;;;;;10.40;99.90;;;;;;6248173;22;20430;-79
2023/03/21 09:54:32;;;;;;;28.90;19.70;;;10.40;99.90;;;;;;6221349;22;19912;-80
2023/03/21 09:57:04;;;;;;;28.10;18.50;;;10.40;99.90;;;;;;6221427;22;20016;-79
2023/03/21 09:59:45;;;;;;;25.50;19.02;;;10.40;99.90;;;;;;6221639;22;20370;-79
2023/03/21 10:02:49;;;;;;;29.58;19.85;;;10.40;99.90;;;;;;6221436;22;20090;-79
2023/03/21 10:05:23;;;;;;;31.55;20.83;;;10.30;99.90;;;;;;6274238;22;20011;-79
2023/03/21 10:08:08;;;;;;;33.92;22.13;;;10.30;99.90;;;;;;6246392;22;20012;-79
2023/03/21 10:10:41;;;;;;;32.83;22.65;;;10.30;99.90;;;;;;6274195;22;20004;-78
2023/03/21 10:13:15;;;;;;;33.78;22.13;;;10.30;99.90;;;;;;6246773;22;20003;-79
2023/03/21 10:15:41;;;;;;;31.95;23.35;;;10.30;99.90;;;;;;6246731;22;20043;-79
2023/03/21 10:18:13;;;;;;;33.03;22.58;;;10.20;99.90;;;;;;6273708;22;20015;-79
2023/03/21 10:20:41;;;;;;;33.22;22.10;;;10.30;99.90;;;;;;6221266;22;20015;-79
2023/03/21 10:23:15;;;;;;;29.85;22.98;;;10.20;99.90;;;;;;6246278;22;20022;-79
2023/03/21 10:26:03;;;;;;;34.17;25.95;;;10.20;99.90;;;;;;6246753;22;20012;-79
2023/03/21 10:28:36;;;;;;;34.95;26.60;;;10.30;99.90;;;;;;6246615;22;20060;-79
2023/03/21 10:31:06;;;;;;;35.05;24.85;;;10.30;99.90;;;;;;6246685;22;20015;-79
2023/03/21 10:33:35;;;;;;;35.75;25.23;;;10.20;99.90;;;;;;6221365;22;20033;-79
2023/03/21 10:36:06;;;;;;;31.90;24.33;;;10.20;99.90;;;;;;6273037;22;20434;-79
2023/03/21 10:38:34;;;;;;;35.03;24.88;;;10.20;99.90;;;;;;6247298;22;20016;-79
2023/03/21 10:40:59;;;;;;;33.88;25.80;;;10.20;99.90;;;;;;6247158;22;20042;-79
2023/03/21 10:43:25;;;;;;;36.90;25.70;;;10.30;99.90;;;;;;6246833;22;20107;-80
2023/03/21 10:45:52;;;;;;;33.08;24.05;;;10.30;99.90;;;;;;6221412;22;20146;-79
2023/03/21 10:48:18;;;;;;;33.38;24.33;;;10.30;99.90;;;;;;6247359;22;20024;-80
2023/03/21 10:50:48;;;;;;;35.42;24.90;;;10.30;99.90;;;;;;6246264;22;20473;-80
2023/03/21 10:53:30;;;;;;;31.30;23.15;;;10.40;99.90;;;;;;6246757;22;20015;-80
2023/03/21 10:55:59;;;;;;;31.02;21.30;;;10.50;99.90;;;;;;6246590;22;20098;-80
2023/03/21 10:58:27;;;;;;;31.65;19.95;;;10.60;99.90;;;;;;6274011;22;20016;-80
2023/03/21 11:01:01;;;;;;;28.95;21.67;;;10.60;99.90;;;;;;6247109;22;20016;-80
2023/03/21 11:03:31;;;;;;;30.13;19.77;;;10.70;99.90;;;;;;6246408;22;20008;-79
2023/03/21 11:06:23;;;;;;;28.00;19.52;;;10.70;99.90;;;;;;6220491;22;20048;-80
2023/03/21 11:08:53;;;;;;;25.35;17.80;;;10.80;99.90;;;;;;6267646;22;20119;-80
2023/03/21 11:11:31;;;;;;;27.67;19.48;;;11.00;99.90;;;;;;6221472;22;20086;-80
2023/03/21 11:14:05;;;;;;;26.58;18.50;;;11.20;99.90;;;;;;6246729;22;20061;-80
2023/03/21 11:16:35;;;;;;;25.75;18.55;;;11.20;99.90;;;;;;6221421;22;20114;-80
2023/03/21 11:19:11;;;;;;;25.25;17.35;;;11.30;99.90;;;;;;6247134;22;20073;-80
2023/03/21 11:21:37;;;;;;;29.73;17.85;;;11.50;99.90;;;;;;6246701;22;20023;-80
2023/03/21 11:24:04;;;;;;;21.27;16.00;;;11.70;99.90;;;;;;6221364;22;20022;-80
2023/03/21 11:26:35;;;;;;;25.90;17.40;;;11.80;99.90;;;;;;6246338;22;20012;-80
2023/03/21 11:29:18;;;;;;;20.88;16.30;;;11.90;99.90;;;;;;6222252;22;20019;-80
2023/03/21 11:31:45;;;;;;;17.77;14.40;;;11.90;99.90;;;;;;6275947;22;20326;-79
2023/03/21 11:34:25;;;;;;;21.08;13.43;;;12.00;99.90;;;;;;6247562;22;20012;-80
2023/03/21 11:36:50;;;;;;;24.40;16.00;;;12.10;99.90;;;;;;6248222;22;20019;-80
2023/03/21 11:39:31;;;;;;;26.67;18.73;;;12.10;99.90;;;;;;6248692;22;20008;-80
2023/03/21 11:41:56;;;;;;;22.88;13.90;;;12.20;99.90;;;;;;6248408;22;20367;-80
2023/03/21 11:44:26;;;;;;;22.33;15.45;;;12.20;99.90;;;;;;6248171;22;20065;-80
2023/03/21 11:46:52;;;;;;;21.75;14.20;;;12.30;99.90;;;;;;6275535;22;20049;-80
2023/03/21 11:49:18;;;;;;;22.95;13.13;;;12.30;99.90;;;;;;6248040;22;20359;-80
2023/03/21 11:52:12;;;;;;;23.58;14.38;;;12.40;99.90;;;;;;6248041;22;20012;-80
2023/03/21 11:55:02;;;;;;;22.10;12.82;;;12.40;99.90;;;;;;6248341;22;20425;-79
2023/03/21 11:57:51;;;;;;;20.80;12.80;;;12.40;99.90;;;;;;6248378;22;20030;-80
2023/03/21 12:00:25;;;;;;;18.27;11.50;;;12.50;99.90;;;;;;6248243;22;20046;-80
2023/03/21 12:03:15;;;;;;;20.65;12.65;;;12.50;99.90;;;;;;6247406;22;20027;-80
2023/03/21 12:05:55;;;;;;;17.65;11.82;;;12.60;99.90;;;;;;6247998;22;20019;-80
2023/03/21 12:08:55;;;;;;;17.92;11.80;;;12.70;99.90;;;;;;6247988;22;20421;-80
2023/03/21 12:11:39;;;;;;;17.98;11.63;;;12.80;99.90;;;;;;6275279;22;20007;-79
2023/03/21 12:14:50;;;;;;;19.27;12.15;;;12.70;99.90;;;;;;6248354;22;20015;-80
2023/03/21 12:17:43;;;;;;;19.77;11.20;;;12.80;99.90;;;;;;6126523;23;20113;-80
2023/03/21 12:20:38;;;;;;;19.02;11.73;;;12.80;99.90;;;;;;6130165;23;20061;-80
2023/03/21 12:23:15;;;;;;;18.67;11.32;;;12.80;99.90;;;;;;6132980;23;20072;-79
2023/03/21 12:26:02;;;;;;;15.85;11.93;;;12.80;99.90;;;;;;6139416;23;20013;-80
2023/03/21 12:28:46;;;;;;;18.52;12.38;;;12.80;99.90;;;;;;6112819;23;20018;-80
2023/03/21 12:31:30;;;;;;;18.08;12.32;;;12.70;99.90;;;;;;6104388;23;20026;-80
2023/03/21 12:34:11;;;;;;;16.10;10.63;;;12.70;99.90;;;;;;6126893;23;20356;-80
2023/03/21 12:36:47;;;;;;;18.85;11.68;;;12.70;99.90;;;;;;6102559;23;20366;-80
2023/03/21 12:39:36;;;;;;;15.30;9.75;;;12.60;99.90;;;;;;6126803;23;20045;-80
2023/03/21 12:42:56;;;;;;;17.33;10.98;;;12.40;99.90;;;;;;6102292;23;20021;-80
2023/03/21 12:45:31;;;;;;;16.45;11.65;;;12.30;99.90;;;;;;6068375;23;20018;-80
2023/03/21 12:48:14;;;;;;;17.05;10.68;;;12.30;99.90;;;;;;6067663;23;20018;-80
2023/03/21 12:50:49;;;;;;;16.17;9.93;;;12.20;99.90;;;;;;6044798;23;20014;-80
2023/03/21 12:53:30;;;;;;;16.37;9.80;;;12.20;99.90;;;;;;6081858;23;20218;-80